createdAt,value
2023-03-11T00:00:08.303Z,97052.00
2023-03-11T00:00:18.308Z,97050.00
2023-03-11T00:00:28.340Z,97056.00
2023-03-11T00:00:38.321Z,97060.00
2023-03-11T00:00:48.325Z,97054.00
2023-03-11T00:00:58.346Z,97056.00
2023-03-11T00:01:08.330Z,97056.00
2023-03-11T00:01:18.330Z,97058.00
2023-03-11T00:01:28.359Z,97060.00
2023-03-11T00:01:38.349Z,97064.00
2023-03-11T00:01:48.398Z,97064.00
2023-03-11T00:01:58.543Z,97062.00
2023-03-11T00:02:08.524Z,97062.00
2023-03-11T00:02:18.584Z,97060.00
2023-03-11T00:02:28.957Z,97064.00
2023-03-11T00:02:38.948Z,97060.00
2023-03-11T00:02:48.948Z,97062.00
2023-03-11T00:02:59.222Z,97060.00
2023-03-11T00:03:09.233Z,97064.00
2023-03-11T00:03:19.231Z,97066.00
2023-03-11T00:03:29.278Z,97058.00
2023-03-11T00:03:39.264Z,97062.00
2023-03-11T00:03:49.277Z,97058.00
2023-03-11T00:03:59.388Z,97060.00
2023-03-11T00:04:09.399Z,97058.00
2023-03-11T00:04:19.523Z,97058.00
2023-03-11T00:04:29.522Z,97058.00
2023-03-11T00:04:39.651Z,97056.00
2023-03-11T00:04:49.647Z,97052.00
2023-03-11T00:04:59.909Z,97052.00
2023-03-11T00:05:10.096Z,97052.00
2023-03-11T00:05:20.179Z,97048.00
2023-03-11T00:05:30.277Z,97056.00
2023-03-11T00:05:40.674Z,97054.00
2023-03-11T00:05:50.498Z,97058.00
2023-03-11T00:06:00.497Z,97052.00
2023-03-11T00:06:10.534Z,97054.00
2023-03-11T00:06:20.531Z,97052.00
2023-03-11T00:06:30.528Z,97052.00
2023-03-11T00:06:40.648Z,97046.00
2023-03-11T00:06:50.672Z,97050.00
2023-03-11T00:07:00.680Z,97052.00
2023-03-11T00:07:10.681Z,97048.00
2023-03-11T00:07:20.932Z,97050.00
2023-03-11T00:07:30.935Z,97050.00
2023-03-11T00:07:41.053Z,97044.00
2023-03-11T00:07:51.309Z,97044.00
2023-03-11T00:08:01.436Z,97042.00
2023-03-11T00:08:11.435Z,97046.00
2023-03-11T00:08:21.691Z,97040.00
2023-03-11T00:08:31.690Z,97044.00
2023-03-11T00:08:41.805Z,97042.00
2023-03-11T00:08:52.069Z,97054.00
2023-03-11T00:09:02.194Z,97048.00
2023-03-11T00:09:12.195Z,97046.00
2023-03-11T00:09:22.444Z,97040.00
2023-03-11T00:09:32.445Z,97038.00
2023-03-11T00:09:42.445Z,97038.00
2023-03-11T00:09:52.445Z,97040.00
2023-03-11T00:10:02.488Z,97044.00
2023-03-11T00:10:12.489Z,97044.00
2023-03-11T00:10:22.611Z,97044.00
2023-03-11T00:10:32.701Z,97044.00
2023-03-11T00:10:42.716Z,97046.00
2023-03-11T00:10:52.723Z,97050.00
2023-03-11T00:11:02.965Z,97050.00
2023-03-11T00:11:12.966Z,97048.00
2023-03-11T00:11:22.969Z,97052.00
2023-03-11T00:11:32.970Z,97058.00
2023-03-11T00:11:43.093Z,97056.00
2023-03-11T00:11:53.096Z,97056.00
2023-03-11T00:12:03.210Z,97056.00
2023-03-11T00:12:13.227Z,97054.00
2023-03-11T00:12:23.240Z,97058.00
2023-03-11T00:12:33.228Z,97056.00
2023-03-11T00:12:43.354Z,97056.00
2023-03-11T00:12:53.356Z,97056.00
2023-03-11T00:13:03.476Z,97054.00
2023-03-11T00:13:13.758Z,97058.00
2023-03-11T00:13:23.879Z,97060.00
2023-03-11T00:13:33.873Z,97058.00
2023-03-11T00:13:44.132Z,97066.00
2023-03-11T00:13:54.127Z,97056.00
2023-03-11T00:14:04.247Z,97062.00
2023-03-11T00:14:14.515Z,97056.00
2023-03-11T00:14:24.514Z,97054.00
2023-03-11T00:14:34.518Z,97054.00
2023-03-11T00:14:44.894Z,97052.00
2023-03-11T00:14:54.898Z,97054.00
2023-03-11T00:15:04.904Z,97050.00
2023-03-11T00:15:14.910Z,97054.00
2023-03-11T00:15:25.045Z,97052.00
2023-03-11T00:15:35.045Z,97052.00
2023-03-11T00:15:45.195Z,97046.00
2023-03-11T00:15:55.195Z,97046.00
2023-03-11T00:16:05.312Z,97046.00
2023-03-11T00:16:15.332Z,97048.00
2023-03-11T00:16:25.480Z,97050.00
2023-03-11T00:16:35.520Z,97056.00
2023-03-11T00:16:45.607Z,97058.00
2023-03-11T00:16:55.926Z,97060.00
2023-03-11T00:17:05.980Z,97062.00
2023-03-11T00:17:16.102Z,97052.00
2023-03-11T00:17:26.236Z,97050.00
2023-03-11T00:17:36.261Z,97050.00
2023-03-11T00:17:46.236Z,97046.00
2023-03-11T00:17:56.280Z,97044.00
2023-03-11T00:18:06.271Z,97046.00
2023-03-11T00:18:16.394Z,97046.00
2023-03-11T00:18:26.396Z,97046.00
2023-03-11T00:18:36.519Z,97046.00
2023-03-11T00:18:46.521Z,97046.00
2023-03-11T00:18:56.540Z,97048.00
2023-03-11T00:19:06.677Z,97040.00
2023-03-11T00:19:16.686Z,97038.00
2023-03-11T00:19:26.698Z,97036.00
2023-03-11T00:19:36.704Z,97040.00
2023-03-11T00:19:46.715Z,97040.00
2023-03-11T00:19:56.834Z,97034.00
2023-03-11T00:20:06.836Z,97032.00
2023-03-11T00:20:16.846Z,97036.00
2023-03-11T00:20:26.855Z,97036.00
2023-03-11T00:20:36.870Z,97038.00
2023-03-11T00:20:47.154Z,97038.00
2023-03-11T00:20:57.165Z,97038.00
2023-03-11T00:21:07.170Z,97040.00
2023-03-11T00:21:17.181Z,97038.00
2023-03-11T00:21:27.298Z,97042.00
2023-03-11T00:21:37.427Z,97040.00
2023-03-11T00:21:47.447Z,97044.00
2023-03-11T00:21:57.499Z,97046.00
2023-03-11T00:22:07.507Z,97046.00
2023-03-11T00:22:17.508Z,97050.00
2023-03-11T00:22:27.779Z,97052.00
2023-03-11T00:22:37.903Z,97048.00
2023-03-11T00:22:47.908Z,97050.00
2023-03-11T00:22:58.150Z,97056.00
2023-03-11T00:23:08.157Z,97056.00
2023-03-11T00:23:18.152Z,97058.00
2023-03-11T00:23:28.162Z,97062.00
2023-03-11T00:23:38.279Z,97060.00
2023-03-11T00:23:48.283Z,97056.00
2023-03-11T00:23:58.398Z,97056.00
2023-03-11T00:24:08.407Z,97058.00
2023-03-11T00:24:18.523Z,97064.00
2023-03-11T00:24:28.527Z,97066.00
2023-03-11T00:24:38.666Z,97064.00
2023-03-11T00:24:48.659Z,97064.00
2023-03-11T00:24:58.779Z,97062.00
2023-03-11T00:25:08.912Z,97062.00
2023-03-11T00:25:19.072Z,97064.00
2023-03-11T00:25:29.086Z,97066.00
2023-03-11T00:25:39.338Z,97060.00
2023-03-11T00:25:49.339Z,97060.00
2023-03-11T00:25:59.349Z,97062.00
2023-03-11T00:26:09.349Z,97068.00
2023-03-11T00:26:19.476Z,97060.00
2023-03-11T00:26:29.472Z,97062.00
2023-03-11T00:26:39.607Z,97066.00
2023-03-11T00:26:49.612Z,97070.00
2023-03-11T00:26:59.744Z,97068.00
2023-03-11T00:27:09.753Z,97066.00
2023-03-11T00:27:19.765Z,97060.00
2023-03-11T00:27:29.825Z,97062.00
2023-03-11T00:27:39.831Z,97064.00
2023-03-11T00:27:49.833Z,97066.00
2023-03-11T00:27:59.842Z,97064.00
2023-03-11T00:28:09.850Z,97066.00
2023-03-11T00:28:19.842Z,97064.00
2023-03-11T00:28:30.806Z,97062.00
2023-03-11T00:28:39.946Z,97064.00
2023-03-11T00:28:49.960Z,97068.00
2023-03-11T00:28:59.951Z,97070.00
2023-03-11T00:29:09.953Z,97062.00
2023-03-11T00:29:19.956Z,97062.00
2023-03-11T00:29:29.957Z,97062.00
2023-03-11T00:29:39.976Z,97060.00
2023-03-11T00:29:49.978Z,97058.00
2023-03-11T00:29:59.989Z,97058.00
2023-03-11T00:30:10.005Z,97056.00
2023-03-11T00:30:20.042Z,97050.00
2023-03-11T00:30:30.094Z,97048.00
2023-03-11T00:30:40.159Z,97052.00
2023-03-11T00:30:50.178Z,97056.00
2023-03-11T00:31:00.275Z,97054.00
2023-03-11T00:31:10.331Z,97054.00
2023-03-11T00:31:20.367Z,97054.00
2023-03-11T00:31:30.356Z,97056.00
2023-03-11T00:31:40.472Z,97054.00
2023-03-11T00:31:50.471Z,97050.00
2023-03-11T00:32:00.501Z,97050.00
2023-03-11T00:32:10.512Z,97048.00
2023-03-11T00:32:20.622Z,97056.00
2023-03-11T00:32:30.913Z,97056.00
2023-03-11T00:32:41.011Z,97056.00
2023-03-11T00:32:51.080Z,97052.00
2023-03-11T00:33:01.350Z,97050.00
2023-03-11T00:33:11.329Z,97054.00
2023-03-11T00:33:21.448Z,97054.00
2023-03-11T00:33:31.707Z,97058.00
2023-03-11T00:33:41.715Z,97062.00
2023-03-11T00:33:51.716Z,97062.00
2023-03-11T00:34:01.726Z,97060.00
2023-03-11T00:34:11.748Z,97062.00
2023-03-11T00:34:21.744Z,97064.00
2023-03-11T00:34:31.755Z,97064.00
2023-03-11T00:34:41.777Z,97062.00
2023-03-11T00:34:51.773Z,97062.00
2023-03-11T00:35:01.810Z,97066.00
2023-03-11T00:35:11.783Z,97068.00
2023-03-11T00:35:21.821Z,97068.00
2023-03-11T00:35:31.841Z,97068.00
2023-03-11T00:35:41.921Z,97064.00
2023-03-11T00:35:52.097Z,97068.00
2023-03-11T00:36:02.047Z,97064.00
2023-03-11T00:36:12.118Z,97062.00
2023-03-11T00:36:22.102Z,97060.00
2023-03-11T00:36:32.114Z,97060.00
2023-03-11T00:36:42.235Z,97062.00
2023-03-11T00:36:52.241Z,97064.00
2023-03-11T00:37:02.257Z,97058.00
2023-03-11T00:37:12.254Z,97058.00
2023-03-11T00:37:22.261Z,97058.00
2023-03-11T00:37:32.518Z,97052.00
2023-03-11T00:37:42.639Z,97052.00
2023-03-11T00:37:52.635Z,97050.00
2023-03-11T00:38:02.901Z,97048.00
2023-03-11T00:38:12.906Z,97046.00
2023-03-11T00:38:23.064Z,97046.00
2023-03-11T00:38:32.963Z,97044.00
2023-03-11T00:38:42.971Z,97046.00
2023-03-11T00:38:53.040Z,97044.00
2023-03-11T00:39:03.034Z,97042.00
2023-03-11T00:39:13.040Z,97042.00
2023-03-11T00:39:23.044Z,97042.00
2023-03-11T00:39:33.086Z,97042.00
2023-03-11T00:39:43.463Z,97044.00
2023-03-11T00:39:53.462Z,97052.00
2023-03-11T00:40:03.586Z,97052.00
2023-03-11T00:40:13.852Z,97054.00
2023-03-11T00:40:23.852Z,97054.00
2023-03-11T00:40:33.851Z,97054.00
2023-03-11T00:40:43.855Z,97046.00
2023-03-11T00:40:53.866Z,97052.00
2023-03-11T00:41:03.987Z,97052.00
2023-03-11T00:41:13.997Z,97052.00
2023-03-11T00:41:24.124Z,97052.00
2023-03-11T00:41:34.122Z,97052.00
2023-03-11T00:41:44.241Z,97052.00
2023-03-11T00:41:54.247Z,97054.00
2023-03-11T00:42:04.366Z,97056.00
2023-03-11T00:42:14.387Z,97054.00
2023-03-11T00:42:24.650Z,97054.00
2023-03-11T00:42:34.636Z,97054.00
2023-03-11T00:42:44.642Z,97054.00
2023-03-11T00:42:54.649Z,97054.00
2023-03-11T00:43:04.661Z,97054.00
2023-03-11T00:43:14.683Z,97054.00
2023-03-11T00:43:24.684Z,97054.00
2023-03-11T00:43:34.687Z,97056.00
2023-03-11T00:43:44.705Z,97058.00
2023-03-11T00:43:54.704Z,97058.00
2023-03-11T00:44:05.091Z,97056.00
2023-03-11T00:44:15.084Z,97056.00
2023-03-11T00:44:25.085Z,97056.00
2023-03-11T00:44:35.083Z,97060.00
2023-03-11T00:44:45.209Z,97056.00
2023-03-11T00:44:55.214Z,97056.00
2023-03-11T00:45:05.331Z,97056.00
2023-03-11T00:45:15.344Z,97058.00
2023-03-11T00:45:25.342Z,97062.00
2023-03-11T00:45:35.344Z,97066.00
2023-03-11T00:45:45.526Z,97064.00
2023-03-11T00:45:55.488Z,97056.00
2023-03-11T00:46:05.527Z,97058.00
2023-03-11T00:46:15.580Z,97062.00
2023-03-11T00:46:25.664Z,97064.00
2023-03-11T00:46:35.747Z,97062.00
2023-03-11T00:46:45.775Z,97062.00
2023-03-11T00:46:55.825Z,97060.00
2023-03-11T00:47:05.810Z,97056.00
2023-03-11T00:47:15.811Z,97058.00
2023-03-11T00:47:26.071Z,97060.00
2023-03-11T00:47:36.084Z,97058.00
2023-03-11T00:47:46.123Z,97062.00
2023-03-11T00:47:56.099Z,97062.00
2023-03-11T00:48:06.112Z,97060.00
2023-03-11T00:48:16.119Z,97058.00
2023-03-11T00:48:26.116Z,97058.00
2023-03-11T00:48:36.126Z,97058.00
2023-03-11T00:48:46.241Z,97056.00
2023-03-11T00:48:56.243Z,97052.00
2023-03-11T00:49:06.498Z,97054.00
2023-03-11T00:49:16.497Z,97058.00
2023-03-11T00:49:26.628Z,97058.00
2023-03-11T00:49:36.889Z,97070.00
2023-03-11T00:49:46.905Z,97056.00
2023-03-11T00:49:56.900Z,97062.00
2023-03-11T00:50:06.898Z,97064.00
2023-03-11T00:50:16.902Z,97062.00
2023-03-11T00:50:26.997Z,97060.00
2023-03-11T00:50:36.984Z,97056.00
2023-03-11T00:50:47.109Z,97056.00
2023-03-11T00:50:57.128Z,97060.00
2023-03-11T00:51:07.126Z,97060.00
2023-03-11T00:51:17.391Z,97060.00
2023-03-11T00:51:27.397Z,97058.00
2023-03-11T00:51:37.407Z,97062.00
2023-03-11T00:51:47.779Z,97062.00
2023-03-11T00:51:57.788Z,97062.00
2023-03-11T00:52:07.963Z,97060.00
2023-03-11T00:52:18.193Z,97064.00
2023-03-11T00:52:28.208Z,97060.00
2023-03-11T00:52:38.213Z,97058.00
2023-03-11T00:52:48.229Z,97060.00
2023-03-11T00:52:58.224Z,97054.00
2023-03-11T00:53:08.343Z,97056.00
2023-03-11T00:53:18.343Z,97054.00
2023-03-11T00:53:28.469Z,97056.00
2023-03-11T00:53:38.466Z,97056.00
2023-03-11T00:53:48.470Z,97056.00
2023-03-11T00:53:58.606Z,97056.00
2023-03-11T00:54:08.617Z,97058.00
2023-03-11T00:54:18.617Z,97054.00
2023-03-11T00:54:28.999Z,97052.00
2023-03-11T00:54:38.996Z,97054.00
2023-03-11T00:54:49.117Z,97054.00
2023-03-11T00:54:59.374Z,97050.00
2023-03-11T00:55:09.392Z,97052.00
2023-03-11T00:55:19.407Z,97052.00
2023-03-11T00:55:29.407Z,97052.00
2023-03-11T00:55:39.413Z,97056.00
2023-03-11T00:55:49.415Z,97058.00
2023-03-11T00:55:59.437Z,97054.00
2023-03-11T00:56:09.439Z,97056.00
2023-03-11T00:56:19.439Z,97056.00
2023-03-11T00:56:29.553Z,97056.00
2023-03-11T00:56:39.823Z,97056.00
2023-03-11T00:56:49.829Z,97056.00
2023-03-11T00:56:59.839Z,97054.00
2023-03-11T00:57:09.842Z,97052.00
2023-03-11T00:57:19.847Z,97054.00
2023-03-11T00:57:29.970Z,97056.00
2023-03-11T00:57:39.977Z,97056.00
2023-03-11T00:57:50.098Z,97056.00
2023-03-11T00:58:00.164Z,97060.00
2023-03-11T00:58:10.181Z,97060.00
2023-03-11T00:58:20.301Z,97062.00
2023-03-11T00:58:30.419Z,97064.00
2023-03-11T00:58:40.422Z,97064.00
2023-03-11T00:58:50.686Z,97068.00
2023-03-11T00:59:00.700Z,97066.00
2023-03-11T00:59:10.749Z,97068.00
2023-03-11T00:59:20.722Z,97066.00
2023-03-11T00:59:30.742Z,97072.00
2023-03-11T00:59:40.744Z,97070.00
2023-03-11T00:59:50.750Z,97074.00
2023-03-11T01:00:00.771Z,97072.00
2023-03-11T01:00:10.780Z,97072.00
2023-03-11T01:00:20.785Z,97074.00
2023-03-11T01:00:30.789Z,97074.00
2023-03-11T01:00:40.948Z,97074.00
2023-03-11T01:00:50.952Z,97074.00
2023-03-11T01:01:01.113Z,97076.00
2023-03-11T01:01:11.179Z,97074.00
2023-03-11T01:01:21.271Z,97074.00
2023-03-11T01:01:31.363Z,97072.00
2023-03-11T01:01:41.434Z,97074.00
2023-03-11T01:01:51.458Z,97070.00
2023-03-11T01:02:01.572Z,97072.00
2023-03-11T01:02:11.830Z,97066.00
2023-03-11T01:02:21.954Z,97072.00
2023-03-11T01:02:31.953Z,97068.00
2023-03-11T01:02:42.223Z,97068.00
2023-03-11T01:02:52.256Z,97066.00
2023-03-11T01:03:02.239Z,97066.00
2023-03-11T01:03:12.245Z,97064.00
2023-03-11T01:03:22.251Z,97062.00
2023-03-11T01:03:32.252Z,97062.00
2023-03-11T01:03:42.258Z,97064.00
2023-03-11T01:03:52.261Z,97058.00
2023-03-11T01:04:02.382Z,97058.00
2023-03-11T01:04:12.464Z,97060.00
2023-03-11T01:04:22.718Z,97058.00
2023-03-11T01:04:32.800Z,97062.00
2023-03-11T01:04:42.856Z,97060.00
2023-03-11T01:04:52.896Z,97060.00
2023-03-11T01:05:02.926Z,97058.00
2023-03-11T01:05:12.933Z,97056.00
2023-03-11T01:05:23.061Z,97056.00
2023-03-11T01:05:33.071Z,97056.00
2023-03-11T01:05:43.066Z,97056.00
2023-03-11T01:05:53.071Z,97060.00
2023-03-11T01:06:03.336Z,97056.00
2023-03-11T01:06:13.356Z,97054.00
2023-03-11T01:06:23.468Z,97054.00
2023-03-11T01:06:44.841Z,97054.00
2023-03-11T01:06:45.525Z,97054.00
2023-03-11T01:06:53.653Z,97054.00
2023-03-11T01:07:03.661Z,97054.00
2023-03-11T01:07:13.802Z,97056.00
2023-03-11T01:07:23.839Z,97054.00
2023-03-11T01:07:33.814Z,97058.00
2023-03-11T01:07:43.816Z,97058.00
2023-03-11T01:07:53.827Z,97058.00
2023-03-11T01:08:03.842Z,97058.00
2023-03-11T01:08:13.839Z,97056.00
2023-03-11T01:08:23.848Z,97058.00
2023-03-11T01:08:33.907Z,97056.00
2023-03-11T01:08:43.911Z,97056.00
2023-03-11T01:08:53.924Z,97060.00
2023-03-11T01:09:03.936Z,97060.00
2023-03-11T01:09:13.944Z,97060.00
2023-03-11T01:09:23.954Z,97058.00
2023-03-11T01:09:33.964Z,97058.00
2023-03-11T01:09:44.082Z,97058.00
2023-03-11T01:09:54.083Z,97058.00
2023-03-11T01:10:04.351Z,97058.00
2023-03-11T01:10:14.365Z,97056.00
2023-03-11T01:10:24.377Z,97060.00
2023-03-11T01:10:34.397Z,97058.00
2023-03-11T01:10:44.382Z,97062.00
2023-03-11T01:10:54.379Z,97058.00
2023-03-11T01:11:04.517Z,97062.00
2023-03-11T01:11:14.514Z,97060.00
2023-03-11T01:11:24.635Z,97060.00
2023-03-11T01:11:34.639Z,97062.00
2023-03-11T01:11:44.762Z,97064.00
2023-03-11T01:11:54.768Z,97064.00
2023-03-11T01:12:04.785Z,97064.00
2023-03-11T01:12:14.785Z,97066.00
2023-03-11T01:12:24.802Z,97066.00
2023-03-11T01:12:34.803Z,97068.00
2023-03-11T01:12:44.920Z,97070.00
2023-03-11T01:12:54.926Z,97074.00
2023-03-11T01:13:04.941Z,97072.00
2023-03-11T01:13:14.942Z,97074.00
2023-03-11T01:13:25.195Z,97072.00
2023-03-11T01:13:35.200Z,97074.00
2023-03-11T01:13:45.321Z,97072.00
2023-03-11T01:13:55.578Z,97074.00
2023-03-11T01:14:05.709Z,97074.00
2023-03-11T01:14:15.700Z,97072.00
2023-03-11T01:14:25.951Z,97072.00
2023-03-11T01:14:36.063Z,97074.00
2023-03-11T01:14:46.059Z,97072.00
2023-03-11T01:14:56.316Z,97074.00
2023-03-11T01:15:06.443Z,97074.00
2023-03-11T01:15:16.440Z,97072.00
2023-03-11T01:15:26.717Z,97070.00
2023-03-11T01:15:36.813Z,97072.00
2023-03-11T01:15:46.797Z,97070.00
2023-03-11T01:15:56.878Z,97072.00
2023-03-11T01:16:06.968Z,97068.00
2023-03-11T01:16:16.995Z,97068.00
2023-03-11T01:16:27.009Z,97066.00
2023-03-11T01:16:37.014Z,97068.00
2023-03-11T01:16:47.134Z,97066.00
2023-03-11T01:16:57.139Z,97064.00
2023-03-11T01:17:07.388Z,97070.00
2023-03-11T01:17:17.401Z,97068.00
2023-03-11T01:17:27.401Z,97066.00
2023-03-11T01:17:37.411Z,97066.00
2023-03-11T01:17:47.418Z,97064.00
2023-03-11T01:17:57.440Z,97064.00
2023-03-11T01:18:07.456Z,97066.00
2023-03-11T01:18:17.447Z,97064.00
2023-03-11T01:18:27.455Z,97064.00
2023-03-11T01:18:37.461Z,97066.00
2023-03-11T01:18:47.473Z,97064.00
2023-03-11T01:18:57.485Z,97062.00
2023-03-11T01:19:07.492Z,97060.00
2023-03-11T01:19:17.512Z,97062.00
2023-03-11T01:19:27.519Z,97064.00
2023-03-11T01:19:37.529Z,97062.00
2023-03-11T01:19:47.532Z,97064.00
2023-03-11T01:19:57.542Z,97064.00
2023-03-11T01:20:07.558Z,97064.00
2023-03-11T01:20:17.597Z,97064.00
2023-03-11T01:20:27.612Z,97064.00
2023-03-11T01:20:37.608Z,97066.00
2023-03-11T01:20:47.735Z,97066.00
2023-03-11T01:20:57.748Z,97066.00
2023-03-11T01:21:07.986Z,97064.00
2023-03-11T01:21:17.988Z,97068.00
2023-03-11T01:21:28.112Z,97068.00
2023-03-11T01:21:38.395Z,97068.00
2023-03-11T01:21:48.395Z,97064.00
2023-03-11T01:21:58.399Z,97066.00
2023-03-11T01:22:08.413Z,97066.00
2023-03-11T01:22:18.417Z,97068.00
2023-03-11T01:22:28.535Z,97066.00
2023-03-11T01:22:38.541Z,97066.00
2023-03-11T01:22:48.668Z,97066.00
2023-03-11T01:22:58.669Z,97064.00
2023-03-11T01:23:08.671Z,97066.00
2023-03-11T01:23:18.805Z,97062.00
2023-03-11T01:23:28.941Z,97064.00
2023-03-11T01:23:38.933Z,97064.00
2023-03-11T01:23:49.188Z,97062.00
2023-03-11T01:23:59.191Z,97062.00
2023-03-11T01:24:09.199Z,97064.00
2023-03-11T01:24:19.200Z,97064.00
2023-03-11T01:24:29.235Z,97064.00
2023-03-11T01:24:39.246Z,97066.00
2023-03-11T01:24:49.267Z,97064.00
2023-03-11T01:24:59.275Z,97066.00
2023-03-11T01:25:09.395Z,97064.00
2023-03-11T01:25:19.413Z,97064.00
2023-03-11T01:25:29.669Z,97060.00
2023-03-11T01:25:39.680Z,97060.00
2023-03-11T01:25:49.799Z,97060.00
2023-03-11T01:26:00.069Z,97062.00
2023-03-11T01:26:10.071Z,97064.00
2023-03-11T01:26:20.072Z,97066.00
2023-03-11T01:26:30.447Z,97070.00
2023-03-11T01:26:40.462Z,97064.00
2023-03-11T01:26:50.585Z,97064.00
2023-03-11T01:27:00.842Z,97070.00
2023-03-11T01:27:11.012Z,97066.00
2023-03-11T01:27:21.016Z,97068.00
2023-03-11T01:27:31.266Z,97070.00
2023-03-11T01:27:41.274Z,97072.00
2023-03-11T01:27:51.386Z,97072.00
2023-03-11T01:28:01.670Z,97070.00
2023-03-11T01:28:11.663Z,97072.00
2023-03-11T01:28:21.675Z,97072.00
2023-03-11T01:28:31.682Z,97072.00
2023-03-11T01:28:41.694Z,97072.00
2023-03-11T01:28:51.826Z,97074.00
2023-03-11T01:29:01.823Z,97076.00
2023-03-11T01:29:11.834Z,97077.00
2023-03-11T01:29:21.832Z,97077.00
2023-03-11T01:29:31.848Z,97077.00
2023-03-11T01:29:42.103Z,97077.00
2023-03-11T01:29:52.221Z,97079.00
2023-03-11T01:30:02.230Z,97079.00
2023-03-11T01:30:12.483Z,97081.00
2023-03-11T01:30:22.507Z,97085.00
2023-03-11T01:30:32.490Z,97081.00
2023-03-11T01:30:42.574Z,97079.00
2023-03-11T01:30:52.697Z,97079.00
2023-03-11T01:31:02.722Z,97081.00
2023-03-11T01:31:12.791Z,97081.00
2023-03-11T01:31:22.776Z,97079.00
2023-03-11T01:31:32.789Z,97077.00
2023-03-11T01:31:42.803Z,97077.00
2023-03-11T01:31:53.183Z,97077.00
2023-03-11T01:32:03.191Z,97077.00
2023-03-11T01:32:13.248Z,97076.00
2023-03-11T01:32:23.320Z,97074.00
2023-03-11T01:32:33.410Z,97076.00
2023-03-11T01:32:43.382Z,97074.00
2023-03-11T01:32:53.502Z,97072.00
2023-03-11T01:33:03.532Z,97070.00
2023-03-11T01:33:13.532Z,97072.00
2023-03-11T01:33:23.518Z,97068.00
2023-03-11T01:33:33.902Z,97070.00
2023-03-11T01:33:43.897Z,97072.00
2023-03-11T01:33:53.900Z,97070.00
2023-03-11T01:34:03.912Z,97068.00
2023-03-11T01:34:13.924Z,97066.00
2023-03-11T01:34:23.931Z,97064.00
2023-03-11T01:34:33.927Z,97062.00
2023-03-11T01:34:43.937Z,97058.00
2023-03-11T01:34:54.065Z,97058.00
2023-03-11T01:35:04.070Z,97058.00
2023-03-11T01:35:14.324Z,97056.00
2023-03-11T01:35:24.333Z,97054.00
2023-03-11T01:35:34.345Z,97056.00
2023-03-11T01:35:44.389Z,97050.00
2023-03-11T01:35:54.536Z,97048.00
2023-03-11T01:36:04.556Z,97046.00
2023-03-11T01:36:14.568Z,97048.00
2023-03-11T01:36:24.572Z,97044.00
2023-03-11T01:36:34.693Z,97040.00
2023-03-11T01:36:44.694Z,97038.00
2023-03-11T01:36:54.822Z,97032.00
2023-03-11T01:37:04.827Z,97034.00
2023-03-11T01:37:14.942Z,97034.00
2023-03-11T01:37:25.215Z,97030.00
2023-03-11T01:37:35.220Z,97032.00
2023-03-11T01:37:45.231Z,97029.00
2023-03-11T01:37:55.265Z,97030.00
2023-03-11T01:38:05.256Z,97030.00
2023-03-11T01:38:15.373Z,97025.00
2023-03-11T01:38:25.374Z,97029.00
2023-03-11T01:38:35.386Z,97030.00
2023-03-11T01:38:45.395Z,97027.00
2023-03-11T01:38:55.401Z,97030.00
2023-03-11T01:39:05.689Z,97027.00
2023-03-11T01:39:15.700Z,97029.00
2023-03-11T01:39:25.695Z,97034.00
2023-03-11T01:39:35.698Z,97032.00
2023-03-11T01:39:45.822Z,97032.00
2023-03-11T01:39:55.824Z,97030.00
2023-03-11T01:40:05.838Z,97034.00
2023-03-11T01:40:15.844Z,97032.00
2023-03-11T01:40:25.860Z,97034.00
2023-03-11T01:40:35.868Z,97032.00
2023-03-11T01:40:46.125Z,97036.00
2023-03-11T01:40:56.154Z,97034.00
2023-03-11T01:41:06.157Z,97036.00
2023-03-11T01:41:16.169Z,97036.00
2023-03-11T01:41:26.301Z,97040.00
2023-03-11T01:41:36.310Z,97040.00
2023-03-11T01:41:46.422Z,97040.00
2023-03-11T01:41:56.441Z,97034.00
2023-03-11T01:42:06.546Z,97040.00
2023-03-11T01:42:16.567Z,97036.00
2023-03-11T01:42:26.584Z,97036.00
2023-03-11T01:42:36.585Z,97040.00
2023-03-11T01:42:46.589Z,97042.00
2023-03-11T01:42:56.598Z,97042.00
2023-03-11T01:43:06.622Z,97038.00
2023-03-11T01:43:16.619Z,97044.00
2023-03-11T01:43:26.632Z,97042.00
2023-03-11T01:43:36.636Z,97044.00
2023-03-11T01:43:46.657Z,97048.00
2023-03-11T01:43:56.661Z,97044.00
2023-03-11T01:44:06.671Z,97048.00
2023-03-11T01:44:16.678Z,97052.00
2023-03-11T01:44:26.689Z,97054.00
2023-03-11T01:44:36.699Z,97054.00
2023-03-11T01:44:46.746Z,97056.00
2023-03-11T01:44:56.720Z,97058.00
2023-03-11T01:45:06.740Z,97056.00
2023-03-11T01:45:16.744Z,97060.00
2023-03-11T01:45:26.756Z,97056.00
2023-03-11T01:45:36.760Z,97060.00
2023-03-11T01:45:46.754Z,97056.00
2023-03-11T01:45:56.760Z,97062.00
2023-03-11T01:46:06.905Z,97062.00
2023-03-11T01:46:17.026Z,97062.00
2023-03-11T01:46:27.245Z,97066.00
2023-03-11T01:46:37.306Z,97064.00
2023-03-11T01:46:47.328Z,97066.00
2023-03-11T01:46:57.333Z,97070.00
2023-03-11T01:47:07.456Z,97068.00
2023-03-11T01:47:17.464Z,97072.00
2023-03-11T01:47:27.467Z,97070.00
2023-03-11T01:47:37.481Z,97074.00
2023-03-11T01:47:47.495Z,97072.00
2023-03-11T01:47:57.497Z,97070.00
2023-03-11T01:48:07.811Z,97074.00
2023-03-11T01:48:17.785Z,97070.00
2023-03-11T01:48:27.905Z,97074.00
2023-03-11T01:48:38.171Z,97072.00
2023-03-11T01:48:48.167Z,97074.00
2023-03-11T01:48:58.170Z,97076.00
2023-03-11T01:49:08.186Z,97072.00
2023-03-11T01:49:18.176Z,97074.00
2023-03-11T01:49:28.189Z,97074.00
2023-03-11T01:49:38.192Z,97072.00
2023-03-11T01:49:48.200Z,97072.00
2023-03-11T01:49:58.200Z,97076.00
2023-03-11T01:50:08.346Z,97076.00
2023-03-11T01:50:18.591Z,97074.00
2023-03-11T01:50:28.711Z,97074.00
2023-03-11T01:50:38.713Z,97072.00
2023-03-11T01:50:48.974Z,97072.00
2023-03-11T01:50:58.981Z,97070.00
2023-03-11T01:51:08.992Z,97066.00
2023-03-11T01:51:18.987Z,97066.00
2023-03-11T01:51:29.006Z,97064.00
2023-03-11T01:51:39.010Z,97064.00
2023-03-11T01:51:49.022Z,97060.00
2023-03-11T01:51:59.021Z,97058.00
2023-03-11T01:52:09.016Z,97058.00
2023-03-11T01:52:19.023Z,97054.00
2023-03-11T01:52:29.020Z,97056.00
2023-03-11T01:52:39.033Z,97054.00
2023-03-11T01:52:49.037Z,97052.00
2023-03-11T01:52:59.037Z,97050.00
2023-03-11T01:53:09.041Z,97048.00
2023-03-11T01:53:19.048Z,97044.00
2023-03-11T01:53:29.067Z,97048.00
2023-03-11T01:53:39.070Z,97044.00
2023-03-11T01:53:49.079Z,97044.00
2023-03-11T01:53:59.089Z,97042.00
2023-03-11T01:54:09.102Z,97042.00
2023-03-11T01:54:19.108Z,97038.00
2023-03-11T01:54:29.235Z,97036.00
2023-03-11T01:54:39.240Z,97036.00
2023-03-11T01:54:51.813Z,97034.00
2023-03-11T01:54:59.498Z,97032.00
2023-03-11T01:55:09.506Z,97030.00
2023-03-11T01:55:19.502Z,97029.00
2023-03-11T01:55:29.633Z,97023.00
2023-03-11T01:55:39.636Z,97023.00
2023-03-11T01:55:49.638Z,97025.00
2023-03-11T01:55:59.653Z,97023.00
2023-03-11T01:56:09.766Z,97021.00
2023-03-11T01:56:19.774Z,97021.00
2023-03-11T01:56:29.890Z,97019.00
2023-03-11T01:56:39.891Z,97019.00
2023-03-11T01:56:50.016Z,97017.00
2023-03-11T01:57:00.273Z,97017.00
2023-03-11T01:57:10.487Z,97015.00
2023-03-11T01:57:20.502Z,97013.00
2023-03-11T01:57:30.754Z,97019.00
2023-03-11T01:57:40.757Z,97011.00
2023-03-11T01:57:50.762Z,97013.00
2023-03-11T01:58:00.771Z,97013.00
2023-03-11T01:58:10.786Z,97013.00